Terminal Aerodrome Forecast
Issued by NWS Charleston, WV

Current Version | Previous Version | Graphics & Text | Print | Product List | Glossary On
Versions: 1 2 3 4 5 6 7 8 9 10 11 12 13 14 15 16 17 18 19 20 21 22
000
FTUS41 KRLX 291100
TAFCRW
TAF
KCRW 291128Z 2912/3012 00000KT 6SM BR BKN060 BKN120
     FM291500 VRB03KT P6SM BKN045
     FM300700 00000KT 6SM BR SCT045
     FM301000 00000KT 2SM BR FEW001 FEW050=

USA.gov is the U.S. government's official web portal to all federal, state and local government web resources and services.